Montville, Ohio
Current Conditions -  °F | °C
As of 9:18 PM on Thursday 18 Dec 2014 (Local Time) from KHZY Reporting Station
Overcast Overcast  
Wind Chill: 30°   Ceiling: 1100
Heat Index: 30°   Visibility: 9mi
Dew Point: 28°   Wind: 3mph
Humidity: 92%   Direction: 280°W
Pressure: 30.13"   Gusts: NA
Location:  41.61°N, 81.05°W
Report Text: KHZY 190218Z AUTO 28003KT 9SM BKN011 OVC015 M01/M02 A3013 RMK AO2 SNB0158E14 P0000 T10111022
Loading
Personal Weather Stations






























Interactive Weather Map New forecast layout! Learn more

10-Day Weather Forecast

Advertisements
Track Severe Weather on mobile